This is the latest recevied weather packets stored in our database for station/object SP9KB-13. If no packets are shown the sender has not sent any weather packets the latest 10 day(s).
| Time | Temp. | Humidity | Pressure | Rain* | Wind** | Luminosity | Snow |
|---|---|---|---|---|---|---|---|
| 1778117744 | 15.56° C | 68% | 990.9 hPa | 0 mm | - | - | - |
| 1778117443 | 15° C | 69% | 991.1 hPa | 0 mm | - | - | - |
| 1778117143 | 14.44° C | 71% | 991 hPa | 0 mm | - | - | - |
| 1778116842 | 13.89° C | 75% | 990.9 hPa | 0 mm | - | - | - |
| 1778116542 | 14.44° C | 73% | 991 hPa | 0 mm | - | - | - |
| 1778116242 | 15° C | 71% | 990.9 hPa | 0 mm | - | - | - |
| 1778115941 | 15.56° C | 69% | 991 hPa | 0 mm | - | - | - |
| 1778115641 | 15.56° C | 68% | 990.9 hPa | 0 mm | - | - | - |
| 1778115340 | 15.56° C | 68% | 991 hPa | 0 mm | - | - | - |
| 1778115040 | 15° C | 69% | 990.8 hPa | 0 mm | - | - | - |
| 1778114438 | 15.56° C | 67% | 990.9 hPa | 0 mm | - | - | - |
| 1778114138 | 15.56° C | 68% | 991 hPa | 0 mm | - | - | - |
| 1778113837 | 16.11° C | 66% | 991 hPa | 0 mm | - | - | - |
| 1778113536 | 16.11° C | 65% | 991 hPa | 0 mm | - | - | - |
| 1778113236 | 16.67° C | 64% | 990.9 hPa | 0 mm | - | - | - |
| 1778112935 | 16.67° C | 63% | 991.1 hPa | 0 mm | - | - | - |
| 1778112635 | 16.67° C | 62% | 990.9 hPa | 0 mm | - | - | - |
| 1778112334 | 16.67° C | 63% | 990.7 hPa | 0 mm | - | - | - |
| 1778112034 | 16.67° C | 63% | 990.9 hPa | 0 mm | - | - | - |
| 1778111733 | 16.67° C | 62% | 990.7 hPa | 0 mm | - | - | - |
| 1778111433 | 16.67° C | 63% | 990.9 hPa | 0 mm | - | - | - |
| 1778111132 | 16.67° C | 63% | 990.8 hPa | 0 mm | - | - | - |
| 1778110832 | 16.67° C | 62% | 990.8 hPa | 0 mm | - | - | - |
| 1778110531 | 16.67° C | 63% | 990.8 hPa | 0 mm | - | - | - |
| 1778110231 | 16.11° C | 64% | 990.8 hPa | 0 mm | - | - | - |
* Rain latest hour (hover to see other rain measurements)
** Current wind speed in m/s (hover to see current wind gust speed)